Time;durP1;ratioP1;P1;durP2;ratioP2;P2;SDS_P1;SDS_P2;PMS_P1;PMS_P2;Temp;Humidity;BMP_temperature;BMP_pressure;BME280_temperature;BME280_humidity;BME280_pressure;Samples;Min_cycle;Max_cycle;Signal;HPM_P1;HPM_P2
2021/09/08 00:01:31;;;;;;;22.22;11.05;;;;;;;5.95;100.00;101661.95;1679232;83;21122;-67
2021/09/08 00:03:58;;;;;;;16.27;11.25;;;;;;;5.93;100.00;101662.52;1682794;83;21019;-67
2021/09/08 00:06:24;;;;;;;18.55;11.53;;;;;;;5.93;100.00;101663.00;1677030;83;22619;-67
2021/09/08 00:08:51;;;;;;;17.20;11.68;;;;;;;5.93;100.00;101663.00;1681495;83;21031;-67
2021/09/08 00:11:17;;;;;;;21.45;11.57;;;;;;;5.93;100.00;101664.29;1681804;84;21078;-69
2021/09/08 00:13:45;;;;;;;18.87;11.55;;;;;;;5.87;100.00;101666.83;1671920;83;20960;-68
2021/09/08 00:16:14;;;;;;;19.32;11.88;;;;;;;5.82;100.00;101668.48;1681496;85;20944;-68
2021/09/08 00:18:43;;;;;;;20.95;13.48;;;;;;;5.86;100.00;101669.08;1682395;83;21066;-68
2021/09/08 00:21:09;;;;;;;23.45;14.38;;;;;;;5.87;100.00;101664.25;1682699;83;22474;-69
2021/09/08 00:23:36;;;;;;;21.95;13.32;;;;;;;5.76;100.00;101674.15;1682138;83;21466;-68
2021/09/08 00:26:03;;;;;;;27.13;13.48;;;;;;;5.84;100.00;101665.33;1649853;85;21534;-68
2021/09/08 00:28:29;;;;;;;23.45;14.13;;;;;;;5.79;100.00;101672.59;1682447;83;20951;-68
2021/09/08 00:30:56;;;;;;;28.02;14.85;;;;;;;5.77;100.00;101681.44;1684508;84;21150;-69
2021/09/08 00:33:24;;;;;;;24.65;14.93;;;;;;;5.77;100.00;101679.67;1687431;83;21072;-69
2021/09/08 00:35:51;;;;;;;23.07;13.10;;;;;;;5.78;100.00;101680.02;1674545;84;21579;-69
2021/09/08 00:38:18;;;;;;;22.58;13.35;;;;;;;5.76;100.00;101676.73;1691954;83;21075;-68
2021/09/08 00:40:45;;;;;;;20.90;13.35;;;;;;;5.70;100.00;101682.36;1689880;83;21218;-68
2021/09/08 00:43:12;;;;;;;25.12;16.02;;;;;;;5.71;100.00;101682.70;1681438;83;21160;-69
2021/09/08 00:45:40;;;;;;;22.32;13.85;;;;;;;5.70;100.00;101691.42;1685481;84;20974;-69
2021/09/08 00:48:07;;;;;;;24.18;15.28;;;;;;;5.61;100.00;101686.95;1682255;83;20995;-68
2021/09/08 00:50:35;;;;;;;24.72;13.83;;;;;;;5.58;100.00;101681.53;1692224;83;21019;-68
2021/09/08 00:53:02;;;;;;;26.33;14.78;;;;;;;5.52;100.00;101681.16;1675997;84;21103;-68
2021/09/08 00:55:30;;;;;;;29.48;17.30;;;;;;;5.46;100.00;101682.45;1686363;83;21203;-69
2021/09/08 00:57:57;;;;;;;33.55;18.55;;;;;;;5.54;100.00;101678.00;1677478;84;21078;-69
2021/09/08 01:00:26;;;;;;;25.75;15.90;;;;;;;5.53;100.00;101682.80;1679668;84;20982;-67
2021/09/08 01:02:55;;;;;;;25.32;15.35;;;;;;;5.53;100.00;101686.67;1683900;83;21139;-69
2021/09/08 01:05:24;;;;;;;28.62;16.27;;;;;;;5.76;100.00;101691.44;1690681;84;21090;-71
2021/09/08 01:07:53;;;;;;;27.80;14.90;;;;;;;5.77;100.00;101695.19;1681078;84;21096;-68
2021/09/08 01:10:19;;;;;;;24.10;14.55;;;;;;;5.70;100.00;101695.77;1678531;84;21078;-67
2021/09/08 01:12:48;;;;;;;28.17;14.87;;;;;;;5.75;100.00;101693.66;1689774;84;22412;-67
2021/09/08 01:15:16;;;;;;;23.20;12.45;;;;;;;5.86;100.00;101693.66;1685479;84;22207;-69
2021/09/08 01:17:46;;;;;;;19.73;12.63;;;;;;;5.94;100.00;101688.75;1678977;84;21446;-68
2021/09/08 01:20:15;;;;;;;20.05;11.65;;;;;;;5.93;100.00;101692.28;1688478;84;20936;-68
2021/09/08 01:22:53;;;;;;;22.75;12.35;;;;;;;5.89;100.00;101690.84;1679057;84;20991;-69
2021/09/08 01:25:22;;;;;;;19.30;10.48;;;;;;;5.90;100.00;101688.60;1690268;84;20872;-69
2021/09/08 01:27:50;;;;;;;18.40;10.30;;;;;;;5.57;100.00;101683.77;1678358;84;21077;-69
2021/09/08 01:30:20;;;;;;;20.43;11.18;;;;;;;5.81;100.00;101686.73;1690884;84;21481;-68
2021/09/08 01:32:49;;;;;;;18.20;10.82;;;;;;;5.75;100.00;101687.18;1684017;84;21139;-69
2021/09/08 01:35:17;;;;;;;16.60;10.93;;;;;;;5.72;100.00;101680.94;1699685;83;20926;-68
2021/09/08 01:37:46;;;;;;;18.50;10.85;;;;;;;5.66;100.00;101684.02;1674956;85;21024;-68
2021/09/08 01:40:15;;;;;;;21.45;11.75;;;;;;;5.55;100.00;101681.75;1700425;83;20967;-68
2021/09/08 01:42:41;;;;;;;22.52;10.48;;;;;;;5.43;100.00;101681.38;1658197;86;21160;-68
2021/09/08 01:45:13;;;;;;;23.60;12.85;;;;;;;5.37;100.00;101676.19;1692986;84;21166;-68
2021/09/08 01:47:40;;;;;;;20.27;11.97;;;;;;;5.24;100.00;101679.34;1705801;83;21487;-68
2021/09/08 01:50:08;;;;;;;19.07;11.90;;;;;;;5.19;100.00;101671.55;1656041;86;20965;-68
2021/09/08 01:52:37;;;;;;;19.50;12.40;;;;;;;5.12;100.00;101673.31;1680570;84;21154;-68
2021/09/08 01:55:06;;;;;;;23.20;12.90;;;;;;;5.09;100.00;101672.24;1705284;83;21059;-68
2021/09/08 01:57:33;;;;;;;20.88;11.78;;;;;;;5.14;100.00;101674.48;1652915;86;21114;-68
2021/09/08 02:00:00;;;;;;;23.00;12.50;;;;;;;5.17;100.00;101675.56;1657264;85;21229;-67
2021/09/08 02:02:27;;;;;;;19.95;12.53;;;;;;;5.17;100.00;101669.56;1702523;83;22012;-68
2021/09/08 02:04:54;;;;;;;18.05;11.90;;;;;;;5.15;100.00;101668.38;1711197;83;21131;-68
2021/09/08 02:07:22;;;;;;;18.75;10.75;;;;;;;5.15;100.00;101666.26;1711782;83;20937;-68
2021/09/08 02:09:49;;;;;;;18.90;11.45;;;;;;;5.16;100.00;101670.52;1704787;83;21151;-68
2021/09/08 02:12:17;;;;;;;19.40;10.58;;;;;;;5.22;100.00;101676.03;1694614;83;21603;-68
2021/09/08 02:14:44;;;;;;;20.62;11.00;;;;;;;5.21;100.00;101670.98;1709425;83;21027;-69
2021/09/08 02:17:10;;;;;;;18.70;11.03;;;;;;;5.15;100.00;101671.42;1703923;82;21022;-69
2021/09/08 02:19:38;;;;;;;20.17;11.68;;;;;;;5.16;100.00;101666.16;1709349;83;20900;-69
2021/09/08 02:22:05;;;;;;;16.32;10.43;;;;;;;5.20;100.00;101666.29;1710227;83;21163;-68
2021/09/08 02:24:31;;;;;;;19.95;9.70;;;;;;;5.28;100.00;101666.54;1705284;83;21042;-69
2021/09/08 02:26:58;;;;;;;16.17;9.15;;;;;;;5.33;100.00;101668.78;1708194;83;21059;-68
2021/09/08 02:29:26;;;;;;;20.27;11.20;;;;;;;5.34;100.00;101667.83;1703293;83;21461;-68
2021/09/08 02:31:53;;;;;;;16.27;9.78;;;;;;;5.31;100.00;101671.96;1709972;82;20951;-67
2021/09/08 02:34:19;;;;;;;18.00;9.50;;;;;;;5.25;100.00;101668.53;1705676;82;21131;-67
2021/09/08 02:36:45;;;;;;;22.37;13.58;;;;;;;5.22;100.00;101670.04;1709826;82;21081;-70
2021/09/08 02:39:13;;;;;;;18.32;11.22;;;;;;;5.21;100.00;101669.22;1711561;83;21035;-68
2021/09/08 02:41:40;;;;;;;19.17;11.90;;;;;;;5.23;100.00;101670.42;1704809;83;21107;-68
2021/09/08 02:44:08;;;;;;;21.20;12.60;;;;;;;5.20;100.00;101677.10;1709303;82;20992;-68
2021/09/08 02:46:34;;;;;;;20.27;11.45;;;;;;;5.24;100.00;101669.47;1692517;83;22130;-68
2021/09/08 02:49:01;;;;;;;20.12;12.13;;;;;;;5.28;100.00;101671.71;1707507;83;21675;-68
2021/09/08 02:51:28;;;;;;;18.82;11.20;;;;;;;5.16;100.00;101671.80;1711609;83;21026;-68
2021/09/08 02:53:54;;;;;;;18.70;11.63;;;;;;;5.09;100.00;101673.53;1708751;83;21038;-70
2021/09/08 02:56:20;;;;;;;16.45;10.53;;;;;;;5.12;100.00;101672.02;1706890;83;21063;-68
2021/09/08 02:58:47;;;;;;;15.88;9.83;;;;;;;5.07;100.00;101668.11;1710491;83;21143;-67
2021/09/08 03:01:14;;;;;;;17.85;10.88;;;;;;;4.87;100.00;101669.57;1695964;78;21590;-67
2021/09/08 03:03:42;;;;;;;19.10;11.15;;;;;;;4.80;100.00;101665.78;1675216;83;21014;-66
2021/09/08 03:06:09;;;;;;;19.35;11.43;;;;;;;4.83;100.00;101664.27;1673054;83;20950;-66
2021/09/08 03:08:36;;;;;;;21.73;12.68;;;;;;;4.88;100.00;101663.46;1674023;83;21080;-68
2021/09/08 03:11:04;;;;;;;18.45;11.00;;;;;;;4.93;100.00;101667.03;1673989;83;21086;-68
2021/09/08 03:13:32;;;;;;;19.55;11.12;;;;;;;4.98;100.00;101663.63;1665435;83;21611;-67
2021/09/08 03:16:00;;;;;;;21.45;11.97;;;;;;;5.12;100.00;101666.03;1701472;82;21614;-69
2021/09/08 03:18:27;;;;;;;23.12;12.00;;;;;;;5.32;100.00;101665.84;1675866;84;20973;-69
2021/09/08 03:20:53;;;;;;;18.62;11.83;;;;;;;5.77;100.00;101674.49;1688649;83;21007;-70
2021/09/08 03:23:20;;;;;;;19.17;12.65;;;;;;;6.35;100.00;101675.66;1746927;80;22769;-71
2021/09/08 03:25:47;;;;;;;20.17;11.80;;;;;;;7.04;100.00;101670.95;1728579;80;21708;-70
2021/09/08 03:28:13;;;;;;;19.60;11.25;;;;;;;7.78;100.00;101663.55;1745391;80;22092;-71
2021/09/08 03:30:40;;;;;;;17.00;10.08;;;;;;;8.63;100.00;101657.08;1745960;80;22249;-72
2021/09/08 03:33:06;;;;;;;15.32;9.75;;;;;;;9.44;100.00;101658.39;1748038;80;21036;-72
2021/09/08 03:35:33;;;;;;;25.20;10.05;;;;;;;10.26;100.00;101658.13;1747367;80;21157;-72
2021/09/08 03:37:59;;;;;;;17.02;10.72;;;;;;;11.06;100.00;101640.78;1731522;80;21615;-73
2021/09/08 03:40:26;;;;;;;13.90;10.27;;;;;;;11.82;100.00;101636.15;1745282;80;21051;-71
2021/09/08 03:42:53;;;;;;;15.27;9.73;;;;;;;12.46;100.00;101641.72;1745854;80;21375;-72
2021/09/08 03:45:21;;;;;;;14.00;9.43;;;;;;;13.15;100.00;101631.77;1744559;80;21622;-70
2021/09/08 03:47:47;;;;;;;15.93;9.93;;;;;;;14.15;100.00;101625.53;1730718;80;21344;-73
2021/09/08 03:50:14;;;;;;;16.43;9.77;;;;;;;14.15;100.00;101625.53;1747001;81;21410;-70
2021/09/08 03:52:40;;;;;;;17.60;9.70;;;;;;;14.75;100.00;101613.00;1743566;80;21577;-70
2021/09/08 03:55:08;;;;;;;15.30;9.77;;;;;;;15.51;100.00;101612.91;1735130;80;21109;-68
2021/09/08 03:57:36;;;;;;;13.63;9.37;;;;;;;16.18;100.00;101607.45;1749612;80;20992;-68
2021/09/08 04:00:06;;;;;;;16.80;10.90;;;;;;;16.97;100.00;101606.05;1742445;80;21116;-70
2021/09/08 04:02:32;;;;;;;15.17;9.93;;;;;;;17.89;100.00;101609.37;1758503;80;21483;-67
2021/09/08 04:04:59;;;;;;;13.57;9.33;;;;;;;18.59;88.51;101606.74;1744812;80;21062;-70
2021/09/08 04:07:26;;;;;;;13.93;9.97;;;;;;;19.16;75.01;101605.80;1746697;80;20958;-69
2021/09/08 04:09:54;;;;;;;16.53;10.40;;;;;;;19.75;66.32;101602.70;1752270;80;21041;-73
2021/09/08 04:12:21;;;;;;;17.17;10.30;;;;;;;20.12;60.67;101604.53;1745298;80;21134;-70
2021/09/08 04:14:49;;;;;;;15.53;10.07;;;;;;;20.71;56.27;101606.45;1753685;80;20990;-74
2021/09/08 04:17:16;;;;;;;15.10;9.77;;;;;;;21.14;51.99;101598.52;1768662;80;21278;-74
2021/09/08 04:19:44;;;;;;;12.20;9.07;;;;;;;21.68;49.85;101608.02;1754768;80;20978;-73
2021/09/08 04:22:11;;;;;;;17.03;9.30;;;;;;;22.26;47.41;101602.12;1757441;80;21062;-70
2021/09/08 04:24:37;;;;;;;13.17;10.03;;;;;;;22.80;45.56;101601.53;1754073;80;21066;-71
2021/09/08 04:27:05;;;;;;;14.90;11.70;;;;;;;23.26;43.07;101596.42;1760844;80;21069;-69
2021/09/08 04:29:32;;;;;;;15.77;14.07;;;;;;;23.68;41.43;101598.91;1752120;80;21562;-70
2021/09/08 04:31:59;;;;;;;17.40;13.57;;;;;;;24.14;40.01;101602.39;1741764;80;21086;-69
2021/09/08 04:34:25;;;;;;;15.83;11.80;;;;;;;24.29;38.95;101606.64;1758331;80;21015;-69
2021/09/08 04:36:52;;;;;;;17.70;13.30;;;;;;;24.44;37.99;101596.25;1751955;80;21208;-69
2021/09/08 04:39:18;;;;;;;19.82;13.62;;;;;;;24.50;37.92;101596.59;1759494;80;22301;-69
2021/09/08 04:41:45;;;;;;;20.53;13.77;;;;;;;24.52;37.50;101597.70;1752979;81;20991;-67
2021/09/08 04:44:11;;;;;;;21.23;14.75;;;;;;;24.73;36.93;101603.59;1761397;80;20998;-67
2021/09/08 04:46:37;;;;;;;21.00;13.83;;;;;;;24.97;36.26;101605.55;1752986;80;20967;-67
2021/09/08 04:49:04;;;;;;;20.45;14.93;;;;;;;25.18;35.50;101603.17;1750509;80;21093;-69
2021/09/08 04:51:33;;;;;;;18.30;13.18;;;;;;;25.41;35.51;101601.58;1757766;80;21588;-72
2021/09/08 04:53:59;;;;;;;17.62;12.68;;;;;;;25.67;34.71;101604.55;1743641;80;20981;-68
2021/09/08 04:56:27;;;;;;;14.60;10.80;;;;;;;25.75;34.30;101601.42;1736412;80;20946;-67
2021/09/08 04:58:55;;;;;;;15.78;12.55;;;;;;;25.84;33.99;101600.49;1741570;81;21002;-68
2021/09/08 05:01:21;;;;;;;16.60;11.90;;;;;;;26.05;33.31;101596.13;1751114;80;21065;-67
2021/09/08 05:03:48;;;;;;;17.23;12.25;;;;;;;26.16;32.48;101607.98;1744458;81;21003;-67
2021/09/08 05:06:14;;;;;;;20.57;12.53;;;;;;;26.16;32.48;101607.98;1749352;80;21074;-68
2021/09/08 05:08:41;;;;;;;17.17;11.63;;;;;;;26.19;32.36;101602.67;1750276;80;21000;-67
2021/09/08 05:11:07;;;;;;;14.13;10.50;;;;;;;25.96;32.14;101607.28;1744398;80;20936;-67
2021/09/08 05:13:35;;;;;;;16.25;9.28;;;;;;;25.83;32.32;101606.87;1727020;80;21322;-67
2021/09/08 05:16:03;;;;;;;15.80;9.98;;;;;;;25.83;31.82;101607.67;1748406;80;20979;-67
2021/09/08 05:18:30;;;;;;;20.27;11.22;;;;;;;25.83;31.82;101607.67;1746154;80;21493;-67
2021/09/08 05:20:59;;;;;;;15.90;11.25;;;;;;;25.77;31.59;101611.34;1744968;80;21429;-67
2021/09/08 05:23:25;;;;;;;14.03;10.28;;;;;;;25.54;31.72;101610.29;1746459;80;21051;-67
2021/09/08 05:25:53;;;;;;;20.88;10.40;;;;;;;25.29;32.07;101612.92;1727924;80;21141;-67
2021/09/08 05:28:20;;;;;;;18.20;9.93;;;;;;;24.85;32.41;101611.53;1744512;80;20991;-65
2021/09/08 05:30:46;;;;;;;15.68;10.88;;;;;;;24.34;33.28;101615.23;1726823;80;21292;-67
2021/09/08 05:33:13;;;;;;;19.05;9.78;;;;;;;23.75;34.15;101607.53;1744970;80;21492;-66
2021/09/08 05:35:39;;;;;;;13.87;8.80;;;;;;;23.05;34.86;101609.83;1745194;80;21479;-65
2021/09/08 05:38:07;;;;;;;21.00;9.67;;;;;;;22.27;36.12;101610.37;1745005;80;21434;-67
2021/09/08 05:40:33;;;;;;;16.83;9.33;;;;;;;21.75;37.05;101611.41;1746029;80;20999;-65
2021/09/08 05:43:01;;;;;;;13.53;8.33;;;;;;;21.24;37.91;101609.92;1736221;81;21070;-66
2021/09/08 05:45:28;;;;;;;16.50;9.40;;;;;;;20.82;38.53;101615.54;1746127;80;20966;-68
2021/09/08 05:47:54;;;;;;;16.17;9.43;;;;;;;20.65;40.09;101612.64;1727166;80;21070;-66
2021/09/08 05:50:21;;;;;;;14.93;8.30;;;;;;;20.59;40.63;101609.52;1744102;80;21038;-68
2021/09/08 05:52:48;;;;;;;13.57;9.40;;;;;;;20.48;41.35;101616.30;1743638;80;21553;-66
2021/09/08 05:55:15;;;;;;;15.13;9.07;;;;;;;20.51;41.30;101615.09;1744774;80;21477;-67
2021/09/08 05:57:42;;;;;;;15.60;9.73;;;;;;;20.55;42.11;101608.34;1741132;80;20976;-67
2021/09/08 06:00:11;;;;;;;19.73;9.60;;;;;;;20.49;42.03;101608.67;1698206;82;21133;-67
2021/09/08 06:02:38;;;;;;;16.07;8.87;;;;;;;20.40;42.65;101611.27;1688646;83;21136;-67
2021/09/08 06:05:07;;;;;;;14.77;8.67;;;;;;;20.34;42.07;101605.49;1686669;83;21004;-67
2021/09/08 06:07:34;;;;;;;14.97;8.60;;;;;;;20.38;41.86;101605.36;1745074;81;21055;-65
2021/09/08 06:10:00;;;;;;;16.53;8.37;;;;;;;20.34;42.14;101608.14;1745736;80;22072;-65
2021/09/08 06:12:27;;;;;;;13.47;7.57;;;;;;;20.44;41.30;101609.00;1729592;81;20851;-65
2021/09/08 06:14:54;;;;;;;16.53;7.83;;;;;;;20.54;40.95;101606.20;1746429;80;21813;-65
2021/09/08 06:17:21;;;;;;;15.00;7.70;;;;;;;20.77;41.18;101599.50;1744112;80;21072;-66
2021/09/08 06:19:49;;;;;;;14.90;7.53;;;;;;;21.06;40.36;101598.80;1745436;80;21563;-64
2021/09/08 06:22:16;;;;;;;14.53;8.27;;;;;;;21.35;39.33;101602.58;1746775;80;20923;-64
2021/09/08 06:24:43;;;;;;;14.07;7.70;;;;;;;21.54;39.48;101598.08;1731037;81;21468;-68
2021/09/08 06:27:10;;;;;;;15.50;8.23;;;;;;;21.97;38.96;101595.80;1744410;80;22262;-68
2021/09/08 06:29:37;;;;;;;13.93;8.13;;;;;;;22.46;37.66;101589.84;1726678;82;21231;-66
2021/09/08 06:32:04;;;;;;;12.93;7.83;;;;;;;23.16;36.95;101581.08;1745321;81;21124;-66
2021/09/08 06:34:31;;;;;;;12.88;7.97;;;;;;;23.79;36.63;101581.55;1746332;80;21039;-66
2021/09/08 06:36:58;;;;;;;12.40;7.30;;;;;;;24.49;35.44;101580.33;1744251;80;20943;-67
2021/09/08 06:39:24;;;;;;;14.60;8.33;;;;;;;25.20;33.78;101578.39;1735559;81;22500;-66
2021/09/08 06:41:51;;;;;;;10.13;6.92;;;;;;;25.73;32.89;101572.84;1749569;81;21097;-65
2021/09/08 06:44:18;;;;;;;13.38;7.90;;;;;;;26.35;31.95;101570.98;1744972;80;20968;-64
2021/09/08 06:46:44;;;;;;;10.20;6.45;;;;;;;26.78;30.65;101571.00;1747601;80;20980;-68
2021/09/08 06:49:11;;;;;;;13.25;7.05;;;;;;;27.26;29.68;101563.22;1744211;80;20986;-66
2021/09/08 06:51:37;;;;;;;10.63;6.55;;;;;;;27.86;28.65;101561.77;1727964;80;21134;-66
2021/09/08 06:54:04;;;;;;;9.75;6.87;;;;;;;28.42;27.75;101564.99;1746963;80;20955;-64
2021/09/08 06:56:31;;;;;;;9.80;6.10;;;;;;;28.93;26.89;101560.81;1727469;80;21542;-66
2021/09/08 06:58:58;;;;;;;11.78;6.80;;;;;;;29.34;25.99;101560.11;1744021;80;21000;-66
2021/09/08 07:01:24;;;;;;;6.25;4.08;;;;;;;29.72;24.80;101560.44;1746490;80;21057;-67
2021/09/08 07:03:51;;;;;;;6.00;3.47;;;;;;;30.05;23.50;101558.84;1743335;80;22547;-65
2021/09/08 07:06:20;;;;;;;6.53;3.20;;;;;;;30.41;22.82;101555.03;1748904;80;20940;-65
2021/09/08 07:08:46;;;;;;;5.37;3.85;;;;;;;30.80;22.58;101553.56;1729341;81;20944;-66
2021/09/08 07:11:13;;;;;;;5.92;3.52;;;;;;;31.14;22.08;101552.57;1744722;80;21466;-65
2021/09/08 07:13:41;;;;;;;4.78;3.17;;;;;;;31.39;21.37;101548.77;1729453;80;21019;-66
2021/09/08 07:16:07;;;;;;;4.90;2.87;;;;;;;31.57;21.49;101552.55;1745047;80;21236;-65
2021/09/08 07:18:34;;;;;;;5.12;3.15;;;;;;;31.77;20.77;101545.47;1743540;80;21497;-66
2021/09/08 07:21:01;;;;;;;6.17;3.85;;;;;;;31.92;20.22;101547.16;1744417;80;21078;-67
2021/09/08 07:23:28;;;;;;;5.55;3.50;;;;;;;31.92;19.91;101547.95;1745175;81;21090;-66
2021/09/08 07:25:55;;;;;;;5.65;3.50;;;;;;;31.91;19.67;101541.52;1731035;80;20987;-65
2021/09/08 07:28:22;;;;;;;6.90;3.27;;;;;;;31.80;19.75;101533.31;1746969;80;21151;-65
2021/09/08 07:30:53;;;;;;;5.40;3.52;;;;;;;31.90;19.81;101544.77;1728660;80;20987;-65
2021/09/08 07:33:18;;;;;;;5.05;3.15;;;;;;;32.08;19.27;101538.24;1746151;81;20920;-64
2021/09/08 07:35:47;;;;;;;4.40;2.65;;;;;;;32.18;19.50;101538.86;1745039;80;21025;-67
2021/09/08 07:38:16;;;;;;;5.45;3.22;;;;;;;32.19;18.90;101541.01;1746115;81;21638;-64
2021/09/08 07:40:44;;;;;;;4.42;2.92;;;;;;;32.05;18.63;101537.48;1741760;80;21308;-64
2021/09/08 07:43:11;;;;;;;5.22;2.72;;;;;;;32.06;18.41;101535.85;1733521;80;20916;-66
2021/09/08 07:45:38;;;;;;;6.65;3.25;;;;;;;32.07;18.65;101534.75;1742270;80;20998;-66
2021/09/08 07:48:04;;;;;;;4.47;2.90;;;;;;;32.05;19.16;101536.95;1729376;80;20952;-65
2021/09/08 07:50:31;;;;;;;4.42;2.52;;;;;;;31.98;19.06;101535.19;1747463;81;21548;-65
2021/09/08 07:52:58;;;;;;;7.28;3.67;;;;;;;32.04;18.68;101529.94;1713281;82;21129;-65
2021/09/08 07:55:25;;;;;;;5.95;3.47;;;;;;;32.21;18.37;101528.83;1706762;82;20946;-66
2021/09/08 07:57:51;;;;;;;4.97;3.20;;;;;;;32.12;19.17;101525.75;1713054;83;21019;-67
2021/09/08 08:00:19;;;;;;;5.45;3.87;;;;;;;32.02;18.95;101524.61;1713043;83;21101;-64
2021/09/08 08:02:49;;;;;;;19.10;5.67;;;;;;;31.95;19.16;101527.13;1715688;82;20929;-64
2021/09/08 08:05:16;;;;;;;9.78;6.80;;;;;;;31.98;19.56;101521.16;1717775;81;21146;-63
2021/09/08 08:10:33;;;;;;;5.67;3.42;;;;;;;31.92;19.58;101517.48;1719391;82;21054;-63
2021/09/08 08:12:59;;;;;;;6.03;3.65;;;;;;;31.76;19.29;101510.73;1705196;82;21569;-63
2021/09/08 08:15:26;;;;;;;5.72;4.22;;;;;;;31.74;20.10;101519.09;1720101;82;21071;-67
2021/09/08 08:17:52;;;;;;;7.25;3.60;;;;;;;31.96;19.45;101514.45;1688980;84;21158;-64
2021/09/08 08:20:19;;;;;;;5.15;3.52;;;;;;;32.18;19.04;101515.14;1718198;82;21000;-65
2021/09/08 08:22:46;;;;;;;6.00;3.83;;;;;;;32.43;19.01;101507.14;1733076;81;21000;-66
2021/09/08 08:25:16;;;;;;;6.10;3.85;;;;;;;32.61;18.43;101504.86;1742171;81;21493;-67
2021/09/08 08:27:43;;;;;;;5.08;3.17;;;;;;;32.58;18.39;101499.27;1716593;82;21113;-65
2021/09/08 08:30:11;;;;;;;4.15;2.85;;;;;;;32.54;18.61;101496.37;1706945;82;21312;-66
2021/09/08 08:32:38;;;;;;;4.22;3.10;;;;;;;32.46;18.29;101503.83;1716674;83;21551;-65
2021/09/08 08:35:06;;;;;;;5.17;3.10;;;;;;;32.42;17.71;101496.08;1706767;83;21000;-65
2021/09/08 08:37:33;;;;;;;5.58;3.27;;;;;;;32.40;17.64;101497.74;1709021;83;21000;-64
2021/09/08 08:39:59;;;;;;;5.50;3.60;;;;;;;32.18;17.87;101498.95;1703086;82;21143;-65
2021/09/08 08:42:27;;;;;;;6.95;3.52;;;;;;;31.95;18.24;101495.33;1705761;82;22225;-64
2021/09/08 08:44:54;;;;;;;7.67;3.80;;;;;;;31.72;18.70;101493.80;1689424;84;20949;-64
2021/09/08 08:47:21;;;;;;;6.22;3.42;;;;;;;31.48;18.62;101494.45;1708578;82;21008;-66
2021/09/08 08:49:48;;;;;;;6.60;3.27;;;;;;;31.26;18.28;101490.45;1749120;81;20965;-64
2021/09/08 08:52:15;;;;;;;4.53;3.02;;;;;;;31.02;19.12;101488.37;1743476;81;21034;-64
2021/09/08 08:54:42;;;;;;;6.17;3.75;;;;;;;30.90;18.88;101496.08;1748924;81;21180;-64
2021/09/08 08:57:09;;;;;;;4.87;3.67;;;;;;;30.55;18.64;101491.37;1738718;81;21595;-64
2021/09/08 08:59:38;;;;;;;6.58;3.75;;;;;;;30.29;19.08;101490.31;1711014;82;21461;-65
2021/09/08 09:02:30;;;;;;;6.78;3.50;;;;;;;30.21;19.54;101482.08;1725833;81;21485;-63
2021/09/08 09:04:57;;;;;;;13.35;8.68;;;;;;;30.54;19.41;101480.36;1684052;83;20957;-66
2021/09/08 09:07:36;;;;;;;9.50;6.17;;;;;;;30.56;19.21;101476.03;1694574;84;21110;-65
2021/09/08 09:10:10;;;;;;;4.85;3.58;;;;;;;30.59;19.33;101480.84;1709940;82;21007;-61
2021/09/08 09:12:40;;;;;;;5.30;3.50;;;;;;;30.77;19.01;101464.75;1734735;81;21008;-61
2021/09/08 09:15:09;;;;;;;5.05;3.62;;;;;;;30.75;18.63;101464.77;1739908;81;20964;-62
2021/09/08 09:17:37;;;;;;;5.15;3.17;;;;;;;30.18;18.88;101455.20;1705675;83;21054;-61
2021/09/08 09:20:11;;;;;;;6.03;3.20;;;;;;;29.72;19.42;101456.97;1700999;82;21537;-63
2021/09/08 09:22:45;;;;;;;6.08;3.22;;;;;;;29.33;19.92;101456.99;1678004;83;21837;-63
2021/09/08 09:25:17;;;;;;;6.12;3.72;;;;;;;28.97;20.39;101449.12;1680945;83;20959;-63
2021/09/08 09:27:50;;;;;;;4.92;3.42;;;;;;;28.63;20.78;101444.20;1693988;83;21138;-64
2021/09/08 09:30:21;;;;;;;5.10;2.60;;;;;;;28.38;21.35;101445.12;1681328;83;21080;-64
2021/09/08 09:32:49;;;;;;;4.67;2.90;;;;;;;28.46;21.29;101435.17;1702724;83;21140;-63
2021/09/08 09:35:25;;;;;;;4.97;3.20;;;;;;;28.59;21.31;101430.54;1684253;83;21066;-62
2021/09/08 09:37:55;;;;;;;5.10;3.20;;;;;;;28.59;21.42;101435.91;1670824;83;21442;-64
2021/09/08 09:40:26;;;;;;;5.30;2.85;;;;;;;28.73;20.25;101434.23;1691183;82;21162;-63
2021/09/08 09:42:54;;;;;;;4.72;3.02;;;;;;;28.72;20.39;101430.50;1695984;83;20935;-61
2021/09/08 09:45:21;;;;;;;8.23;3.27;;;;;;;28.93;20.59;101429.29;1700561;83;21842;-61
2021/09/08 09:47:49;;;;;;;11.25;3.45;;;;;;;29.26;20.04;101425.08;1701007;83;21046;-64
2021/09/08 09:50:19;;;;;;;5.72;3.15;;;;;;;29.28;19.71;101424.78;1701374;83;21122;-60
2021/09/08 09:52:49;;;;;;;5.28;3.15;;;;;;;29.31;19.54;101425.03;1693261;83;21141;-62
2021/09/08 09:55:15;;;;;;;13.93;3.65;;;;;;;29.28;19.45;101418.90;1689952;83;21522;-62
2021/09/08 09:57:43;;;;;;;5.30;3.20;;;;;;;29.11;19.66;101415.79;1699509;83;21152;-65
2021/09/08 10:00:11;;;;;;;6.62;3.45;;;;;;;29.10;19.59;101412.85;1693536;83;21026;-61
2021/09/08 10:02:40;;;;;;;;;;;;;;;29.15;19.65;101412.80;1736386;81;20984;-64
2021/09/08 10:05:08;;;;;;;5.75;3.22;;;;;;;29.18;18.71;101410.91;1740837;81;21395;-62
2021/09/08 10:07:35;;;;;;;5.03;2.67;;;;;;;28.50;19.44;101400.81;1746949;81;21486;-64
2021/09/08 10:10:22;;;;;;;5.78;2.70;;;;;;;28.17;20.32;101401.45;1730154;81;21132;-62
2021/09/08 10:12:58;;;;;;;6.47;2.80;;;;;;;28.39;20.08;101397.91;1733598;81;22493;-62
2021/09/08 10:15:25;;;;;;;6.13;2.83;;;;;;;28.65;19.63;101394.57;1701681;83;20989;-66
2021/09/08 10:17:53;;;;;;;4.50;2.67;;;;;;;28.76;19.63;101393.98;1676910;82;21675;-63
2021/09/08 10:20:23;;;;;;;4.87;2.80;;;;;;;28.92;19.68;101394.69;1688749;83;21019;-66
2021/09/08 10:22:50;;;;;;;3.75;2.65;;;;;;;29.13;19.28;101399.39;1684472;83;21134;-63
2021/09/08 10:25:22;;;;;;;6.30;2.77;;;;;;;29.34;19.29;101388.21;1684167;84;21568;-64
2021/09/08 10:27:53;;;;;;;5.95;2.77;;;;;;;29.65;19.14;101392.00;1673500;84;21082;-62
2021/09/08 10:30:19;;;;;;;5.28;2.77;;;;;;;29.87;18.66;101389.37;1672133;83;21508;-64
2021/09/08 10:32:46;;;;;;;5.28;2.83;;;;;;;29.71;18.21;101377.44;1652819;84;21577;-62
2021/09/08 10:35:17;;;;;;;5.00;2.90;;;;;;;29.37;19.11;101382.03;1624526;86;22284;-64
2021/09/08 10:37:48;;;;;;;;;;;;;;;29.36;19.25;101381.23;1686984;83;21031;-62
2021/09/08 10:40:15;;;;;;;5.53;2.80;;;;;;;29.54;19.32;101376.48;1699123;83;20138;-61
2021/09/08 10:42:52;;;;;;;5.45;3.10;;;;;;;29.67;19.30;101371.03;1669214;84;20996;-62
2021/09/08 10:45:29;;;;;;;4.65;2.52;;;;;;;29.83;19.61;101372.22;1677333;84;22396;-64
2021/09/08 10:48:02;;;;;;;3.55;2.45;;;;;;;30.00;19.24;101373.38;1729057;81;21163;-62
2021/09/08 10:50:46;;;;;;;4.83;3.00;;;;;;;30.05;18.59;101359.86;1700427;83;21107;-65
2021/09/08 10:53:28;;;;;;;6.42;2.80;;;;;;;29.91;18.52;101367.01;1715100;82;21051;-66
2021/09/08 10:55:55;;;;;;;5.00;2.50;;;;;;;29.64;19.00;101364.88;1676303;85;20995;-65
2021/09/08 10:58:22;;;;;;;6.47;2.75;;;;;;;29.48;19.34;101366.88;1665516;84;21021;-62
2021/09/08 11:00:49;;;;;;;5.97;2.60;;;;;;;29.49;19.61;101360.42;1678032;85;21510;-62
2021/09/08 11:03:22;;;;;;;4.30;2.90;;;;;;;29.56;19.69;101360.89;1675769;84;21632;-61
2021/09/08 11:05:55;;;;;;;3.80;2.90;;;;;;;29.64;19.37;101355.47;1681772;84;21085;-63
2021/09/08 11:08:31;;;;;;;5.58;2.70;;;;;;;29.72;19.00;101350.81;1732017;81;21094;-64
2021/09/08 11:11:18;;;;;;;5.20;2.83;;;;;;;29.86;19.45;101352.29;1708503;82;20951;-64
2021/09/08 11:13:53;;;;;;;4.92;2.80;;;;;;;29.97;19.00;101353.77;1711874;83;20985;-65
2021/09/08 11:16:28;;;;;;;6.72;3.30;;;;;;;29.93;19.26;101355.95;1672480;83;21083;-62
2021/09/08 11:18:58;;;;;;;5.83;2.73;;;;;;;29.86;19.33;101349.59;1703098;83;21003;-63
2021/09/08 11:21:30;;;;;;;5.53;3.12;;;;;;;29.84;19.37;101348.27;1677836;84;21004;-65
2021/09/08 11:24:02;;;;;;;4.45;2.42;;;;;;;29.73;19.39;101347.03;1695284;83;21153;-62